sensor_id;sensor_type;location;lat;lon;timestamp;P1;durP1;ratioP1;P2;durP2;ratioP2
9117;SDS011;4594;50.994;7.126;2023-02-17T00:01:01;9.47;;;6.43;;
9117;SDS011;4594;50.994;7.126;2023-02-17T00:03:34;7.97;;;6.60;;
9117;SDS011;4594;50.994;7.126;2023-02-17T00:06:03;6.43;;;5.83;;
9117;SDS011;4594;50.994;7.126;2023-02-17T00:08:34;7.77;;;6.37;;
9117;SDS011;4594;50.994;7.126;2023-02-17T00:11:01;9.17;;;6.93;;
9117;SDS011;4594;50.994;7.126;2023-02-17T00:13:26;6.53;;;5.93;;
9117;SDS011;4594;50.994;7.126;2023-02-17T00:15:52;7.50;;;6.70;;
9117;SDS011;4594;50.994;7.126;2023-02-17T00:18:18;8.83;;;6.37;;
9117;SDS011;4594;50.994;7.126;2023-02-17T00:20:44;7.03;;;6.33;;
9117;SDS011;4594;50.994;7.126;2023-02-17T00:23:10;9.33;;;6.83;;
9117;SDS011;4594;50.994;7.126;2023-02-17T00:25:38;8.20;;;6.87;;
9117;SDS011;4594;50.994;7.126;2023-02-17T00:28:04;8.63;;;6.50;;
9117;SDS011;4594;50.994;7.126;2023-02-17T00:30:30;6.80;;;6.10;;
9117;SDS011;4594;50.994;7.126;2023-02-17T00:32:56;8.70;;;6.30;;
9117;SDS011;4594;50.994;7.126;2023-02-17T00:35:22;6.33;;;5.67;;
9117;SDS011;4594;50.994;7.126;2023-02-17T00:37:47;7.87;;;6.10;;
9117;SDS011;4594;50.994;7.126;2023-02-17T00:40:13;6.70;;;5.73;;
9117;SDS011;4594;50.994;7.126;2023-02-17T00:42:39;6.90;;;5.30;;
9117;SDS011;4594;50.994;7.126;2023-02-17T00:45:05;6.53;;;5.93;;
9117;SDS011;4594;50.994;7.126;2023-02-17T00:47:32;8.70;;;6.00;;
9117;SDS011;4594;50.994;7.126;2023-02-17T00:49:58;6.50;;;5.80;;
9117;SDS011;4594;50.994;7.126;2023-02-17T00:52:24;6.83;;;6.13;;
9117;SDS011;4594;50.994;7.126;2023-02-17T00:54:49;8.33;;;6.30;;
9117;SDS011;4594;50.994;7.126;2023-02-17T00:57:15;6.43;;;5.43;;
9117;SDS011;4594;50.994;7.126;2023-02-17T00:59:41;5.93;;;5.13;;
9117;SDS011;4594;50.994;7.126;2023-02-17T01:02:06;7.00;;;5.50;;
9117;SDS011;4594;50.994;7.126;2023-02-17T01:04:32;7.20;;;5.40;;
9117;SDS011;4594;50.994;7.126;2023-02-17T01:06:58;5.93;;;5.40;;
9117;SDS011;4594;50.994;7.126;2023-02-17T01:09:24;6.73;;;4.97;;
9117;SDS011;4594;50.994;7.126;2023-02-17T01:11:49;5.83;;;5.23;;
9117;SDS011;4594;50.994;7.126;2023-02-17T01:14:15;6.40;;;4.93;;
9117;SDS011;4594;50.994;7.126;2023-02-17T01:16:43;5.70;;;5.20;;
9117;SDS011;4594;50.994;7.126;2023-02-17T01:19:14;5.63;;;4.90;;
9117;SDS011;4594;50.994;7.126;2023-02-17T01:21:43;5.30;;;4.87;;
9117;SDS011;4594;50.994;7.126;2023-02-17T01:24:09;5.57;;;4.80;;
9117;SDS011;4594;50.994;7.126;2023-02-17T01:26:36;6.00;;;4.83;;
9117;SDS011;4594;50.994;7.126;2023-02-17T01:29:04;8.23;;;4.60;;
9117;SDS011;4594;50.994;7.126;2023-02-17T01:31:31;5.30;;;4.70;;
9117;SDS011;4594;50.994;7.126;2023-02-17T01:33:59;4.70;;;4.30;;
9117;SDS011;4594;50.994;7.126;2023-02-17T01:36:27;4.67;;;4.30;;
9117;SDS011;4594;50.994;7.126;2023-02-17T01:38:53;4.43;;;4.03;;
9117;SDS011;4594;50.994;7.126;2023-02-17T01:41:20;4.70;;;4.30;;
9117;SDS011;4594;50.994;7.126;2023-02-17T01:44:03;4.80;;;4.40;;
9117;SDS011;4594;50.994;7.126;2023-02-17T01:46:32;4.20;;;3.90;;
9117;SDS011;4594;50.994;7.126;2023-02-17T01:49:00;4.47;;;4.07;;
9117;SDS011;4594;50.994;7.126;2023-02-17T01:51:33;4.33;;;4.03;;
9117;SDS011;4594;50.994;7.126;2023-02-17T01:54:04;4.20;;;3.90;;
9117;SDS011;4594;50.994;7.126;2023-02-17T01:56:37;4.83;;;4.43;;
9117;SDS011;4594;50.994;7.126;2023-02-17T01:59:09;4.20;;;3.90;;
9117;SDS011;4594;50.994;7.126;2023-02-17T02:01:41;4.60;;;4.20;;
9117;SDS011;4594;50.994;7.126;2023-02-17T02:04:08;4.03;;;3.73;;
9117;SDS011;4594;50.994;7.126;2023-02-17T02:06:35;4.43;;;4.03;;
9117;SDS011;4594;50.994;7.126;2023-02-17T02:09:08;4.40;;;4.10;;
9117;SDS011;4594;50.994;7.126;2023-02-17T02:11:41;5.23;;;4.13;;
9117;SDS011;4594;50.994;7.126;2023-02-17T02:14:07;4.33;;;3.93;;
9117;SDS011;4594;50.994;7.126;2023-02-17T02:25:54;3.67;;;3.47;;
9117;SDS011;4594;50.994;7.126;2023-02-17T02:32:19;4.33;;;3.93;;
9117;SDS011;4594;50.994;7.126;2023-02-17T02:35:28;4.80;;;4.20;;
9117;SDS011;4594;50.994;7.126;2023-02-17T02:38:23;4.70;;;4.30;;
9117;SDS011;4594;50.994;7.126;2023-02-17T02:40:58;4.40;;;4.00;;
9117;SDS011;4594;50.994;7.126;2023-02-17T02:43:48;4.63;;;4.07;;
9117;SDS011;4594;50.994;7.126;2023-02-17T02:46:16;4.70;;;4.30;;
9117;SDS011;4594;50.994;7.126;2023-02-17T02:48:41;5.07;;;4.00;;
9117;SDS011;4594;50.994;7.126;2023-02-17T02:51:11;6.00;;;4.50;;
9117;SDS011;4594;50.994;7.126;2023-02-17T02:57:21;5.03;;;4.53;;
9117;SDS011;4594;50.994;7.126;2023-02-17T03:00:18;4.77;;;4.23;;
9117;SDS011;4594;50.994;7.126;2023-02-17T03:35:58;4.73;;;4.43;;
9117;SDS011;4594;50.994;7.126;2023-02-17T03:38:24;4.97;;;4.57;;
9117;SDS011;4594;50.994;7.126;2023-02-17T03:40:50;5.43;;;4.93;;
9117;SDS011;4594;50.994;7.126;2023-02-17T03:43:17;5.37;;;4.83;;
9117;SDS011;4594;50.994;7.126;2023-02-17T03:45:43;5.70;;;5.20;;
9117;SDS011;4594;50.994;7.126;2023-02-17T03:48:08;6.83;;;4.60;;
9117;SDS011;4594;50.994;7.126;2023-02-17T03:50:34;4.73;;;4.33;;
9117;SDS011;4594;50.994;7.126;2023-02-17T03:53:00;4.63;;;4.33;;
9117;SDS011;4594;50.994;7.126;2023-02-17T03:55:25;4.90;;;4.50;;
9117;SDS011;4594;50.994;7.126;2023-02-17T03:57:51;4.57;;;4.27;;
9117;SDS011;4594;50.994;7.126;2023-02-17T04:00:17;5.00;;;4.60;;
9117;SDS011;4594;50.994;7.126;2023-02-17T04:02:43;7.57;;;4.70;;
9117;SDS011;4594;50.994;7.126;2023-02-17T04:05:09;4.80;;;4.37;;
9117;SDS011;4594;50.994;7.126;2023-02-17T04:07:34;5.17;;;4.67;;
9117;SDS011;4594;50.994;7.126;2023-02-17T04:10:00;4.67;;;4.23;;
9117;SDS011;4594;50.994;7.126;2023-02-17T04:12:25;4.40;;;4.10;;
9117;SDS011;4594;50.994;7.126;2023-02-17T04:14:51;4.40;;;4.10;;
9117;SDS011;4594;50.994;7.126;2023-02-17T04:17:17;4.70;;;4.30;;
9117;SDS011;4594;50.994;7.126;2023-02-17T04:19:42;4.53;;;4.23;;
9117;SDS011;4594;50.994;7.126;2023-02-17T04:22:08;4.43;;;4.13;;
9117;SDS011;4594;50.994;7.126;2023-02-17T04:24:34;5.80;;;4.47;;
9117;SDS011;4594;50.994;7.126;2023-02-17T04:27:01;5.33;;;4.87;;
9117;SDS011;4594;50.994;7.126;2023-02-17T04:29:30;4.90;;;4.40;;
9117;SDS011;4594;50.994;7.126;2023-02-17T04:31:57;5.57;;;4.40;;
9117;SDS011;4594;50.994;7.126;2023-02-17T04:34:22;5.03;;;4.37;;
9117;SDS011;4594;50.994;7.126;2023-02-17T04:36:48;4.43;;;4.13;;
9117;SDS011;4594;50.994;7.126;2023-02-17T04:39:14;6.20;;;4.53;;
9117;SDS011;4594;50.994;7.126;2023-02-17T04:41:39;5.00;;;4.60;;
9117;SDS011;4594;50.994;7.126;2023-02-17T04:44:05;4.10;;;3.80;;
9117;SDS011;4594;50.994;7.126;2023-02-17T04:46:30;4.43;;;4.13;;
9117;SDS011;4594;50.994;7.126;2023-02-17T04:48:56;4.43;;;4.10;;
9117;SDS011;4594;50.994;7.126;2023-02-17T04:51:22;4.67;;;4.30;;
9117;SDS011;4594;50.994;7.126;2023-02-17T04:53:47;6.33;;;4.20;;
9117;SDS011;4594;50.994;7.126;2023-02-17T04:56:13;4.20;;;3.90;;
9117;SDS011;4594;50.994;7.126;2023-02-17T04:58:39;4.60;;;4.20;;
9117;SDS011;4594;50.994;7.126;2023-02-17T05:01:04;5.13;;;4.10;;
9117;SDS011;4594;50.994;7.126;2023-02-17T05:03:30;4.13;;;3.87;;
9117;SDS011;4594;50.994;7.126;2023-02-17T05:05:56;4.73;;;4.13;;
9117;SDS011;4594;50.994;7.126;2023-02-17T05:08:22;4.93;;;3.67;;
9117;SDS011;4594;50.994;7.126;2023-02-17T05:10:49;4.93;;;4.53;;
9117;SDS011;4594;50.994;7.126;2023-02-17T05:13:16;4.30;;;3.90;;
9117;SDS011;4594;50.994;7.126;2023-02-17T05:15:43;4.73;;;4.40;;
9117;SDS011;4594;50.994;7.126;2023-02-17T05:18:10;4.50;;;4.10;;
9117;SDS011;4594;50.994;7.126;2023-02-17T05:20:37;4.47;;;4.07;;
9117;SDS011;4594;50.994;7.126;2023-02-17T05:23:03;4.40;;;4.10;;
9117;SDS011;4594;50.994;7.126;2023-02-17T05:25:29;4.97;;;4.50;;
9117;SDS011;4594;50.994;7.126;2023-02-17T05:27:55;4.60;;;4.30;;
9117;SDS011;4594;50.994;7.126;2023-02-17T05:30:21;4.47;;;4.07;;
9117;SDS011;4594;50.994;7.126;2023-02-17T05:32:48;3.70;;;3.50;;
9117;SDS011;4594;50.994;7.126;2023-02-17T05:35:13;4.23;;;3.93;;
9117;SDS011;4594;50.994;7.126;2023-02-17T05:37:39;4.10;;;3.80;;
9117;SDS011;4594;50.994;7.126;2023-02-17T05:40:05;4.93;;;4.17;;
9117;SDS011;4594;50.994;7.126;2023-02-17T05:42:32;4.27;;;3.97;;
9117;SDS011;4594;50.994;7.126;2023-02-17T05:44:58;7.20;;;4.10;;
9117;SDS011;4594;50.994;7.126;2023-02-17T05:47:24;3.43;;;3.23;;
9117;SDS011;4594;50.994;7.126;2023-02-17T05:49:49;3.97;;;3.67;;
9117;SDS011;4594;50.994;7.126;2023-02-17T05:52:15;3.67;;;3.47;;
9117;SDS011;4594;50.994;7.126;2023-02-17T05:54:42;4.13;;;3.83;;
9117;SDS011;4594;50.994;7.126;2023-02-17T05:57:08;4.27;;;3.90;;
9117;SDS011;4594;50.994;7.126;2023-02-17T05:59:34;3.90;;;3.60;;
9117;SDS011;4594;50.994;7.126;2023-02-17T06:02:00;4.10;;;3.80;;
9117;SDS011;4594;50.994;7.126;2023-02-17T06:04:25;3.70;;;3.40;;
9117;SDS011;4594;50.994;7.126;2023-02-17T06:06:51;4.33;;;3.93;;
9117;SDS011;4594;50.994;7.126;2023-02-17T06:09:17;3.63;;;3.33;;
9117;SDS011;4594;50.994;7.126;2023-02-17T06:11:42;4.03;;;3.73;;
9117;SDS011;4594;50.994;7.126;2023-02-17T06:14:08;4.10;;;3.80;;
9117;SDS011;4594;50.994;7.126;2023-02-17T06:16:34;4.00;;;3.63;;
9117;SDS011;4594;50.994;7.126;2023-02-17T06:18:59;3.70;;;3.50;;
9117;SDS011;4594;50.994;7.126;2023-02-17T06:21:26;4.20;;;3.80;;
9117;SDS011;4594;50.994;7.126;2023-02-17T06:23:53;4.03;;;3.70;;
9117;SDS011;4594;50.994;7.126;2023-02-17T06:26:18;4.07;;;3.77;;
9117;SDS011;4594;50.994;7.126;2023-02-17T06:28:44;3.80;;;3.50;;
9117;SDS011;4594;50.994;7.126;2023-02-17T06:31:10;5.03;;;3.57;;
9117;SDS011;4594;50.994;7.126;2023-02-17T06:33:35;3.90;;;3.37;;
9117;SDS011;4594;50.994;7.126;2023-02-17T06:36:01;4.73;;;4.03;;
9117;SDS011;4594;50.994;7.126;2023-02-17T06:38:27;4.20;;;3.73;;
9117;SDS011;4594;50.994;7.126;2023-02-17T06:40:52;3.90;;;3.60;;
9117;SDS011;4594;50.994;7.126;2023-02-17T06:43:18;3.63;;;3.33;;
9117;SDS011;4594;50.994;7.126;2023-02-17T06:45:44;3.60;;;3.40;;
9117;SDS011;4594;50.994;7.126;2023-02-17T06:48:10;3.80;;;3.50;;
9117;SDS011;4594;50.994;7.126;2023-02-17T06:50:36;4.30;;;3.93;;
9117;SDS011;4594;50.994;7.126;2023-02-17T06:53:02;3.60;;;3.40;;
9117;SDS011;4594;50.994;7.126;2023-02-17T06:55:28;3.93;;;3.63;;
9117;SDS011;4594;50.994;7.126;2023-02-17T06:57:54;4.00;;;3.70;;
9117;SDS011;4594;50.994;7.126;2023-02-17T07:00:20;4.10;;;3.37;;
9117;SDS011;4594;50.994;7.126;2023-02-17T07:02:46;3.60;;;3.40;;
9117;SDS011;4594;50.994;7.126;2023-02-17T07:05:12;4.03;;;3.70;;
9117;SDS011;4594;50.994;7.126;2023-02-17T07:07:37;4.00;;;3.60;;
9117;SDS011;4594;50.994;7.126;2023-02-17T07:10:03;3.63;;;3.33;;
9117;SDS011;4594;50.994;7.126;2023-02-17T07:12:30;4.67;;;3.57;;
9117;SDS011;4594;50.994;7.126;2023-02-17T07:14:56;3.70;;;3.40;;
9117;SDS011;4594;50.994;7.126;2023-02-17T07:17:21;3.60;;;3.40;;
9117;SDS011;4594;50.994;7.126;2023-02-17T07:19:47;3.50;;;3.20;;
9117;SDS011;4594;50.994;7.126;2023-02-17T07:22:13;3.57;;;3.27;;
9117;SDS011;4594;50.994;7.126;2023-02-17T07:24:39;3.13;;;3.03;;
9117;SDS011;4594;50.994;7.126;2023-02-17T07:27:05;3.60;;;3.30;;
9117;SDS011;4594;50.994;7.126;2023-02-17T07:29:32;3.20;;;3.00;;
9117;SDS011;4594;50.994;7.126;2023-02-17T07:31:58;3.30;;;3.10;;
9117;SDS011;4594;50.994;7.126;2023-02-17T07:34:24;3.70;;;3.40;;
9117;SDS011;4594;50.994;7.126;2023-02-17T07:36:50;3.43;;;3.23;;
9117;SDS011;4594;50.994;7.126;2023-02-17T07:39:16;3.60;;;3.40;;
9117;SDS011;4594;50.994;7.126;2023-02-17T07:41:41;3.50;;;3.30;;
9117;SDS011;4594;50.994;7.126;2023-02-17T07:44:07;3.37;;;3.10;;
9117;SDS011;4594;50.994;7.126;2023-02-17T07:46:33;2.80;;;2.70;;
9117;SDS011;4594;50.994;7.126;2023-02-17T07:49:00;4.47;;;3.40;;
9117;SDS011;4594;50.994;7.126;2023-02-17T07:51:26;3.40;;;3.20;;
9117;SDS011;4594;50.994;7.126;2023-02-17T07:53:52;2.93;;;2.80;;
9117;SDS011;4594;50.994;7.126;2023-02-17T07:56:18;3.10;;;3.00;;
9117;SDS011;4594;50.994;7.126;2023-02-17T07:58:46;3.30;;;3.10;;
9117;SDS011;4594;50.994;7.126;2023-02-17T08:01:16;3.07;;;2.87;;
9117;SDS011;4594;50.994;7.126;2023-02-17T08:03:45;3.43;;;3.23;;
9117;SDS011;4594;50.994;7.126;2023-02-17T08:06:13;3.43;;;3.23;;
9117;SDS011;4594;50.994;7.126;2023-02-17T08:08:45;3.43;;;3.23;;
9117;SDS011;4594;50.994;7.126;2023-02-17T08:11:31;3.63;;;3.33;;
9117;SDS011;4594;50.994;7.126;2023-02-17T08:14:16;3.53;;;3.27;;
9117;SDS011;4594;50.994;7.126;2023-02-17T08:16:48;4.10;;;3.80;;
9117;SDS011;4594;50.994;7.126;2023-02-17T08:19:14;4.13;;;3.73;;
9117;SDS011;4594;50.994;7.126;2023-02-17T08:21:40;3.30;;;3.00;;
9117;SDS011;4594;50.994;7.126;2023-02-17T08:24:06;3.80;;;3.50;;
9117;SDS011;4594;50.994;7.126;2023-02-17T08:28:38;3.57;;;3.37;;
9117;SDS011;4594;50.994;7.126;2023-02-17T08:31:04;3.83;;;3.53;;
9117;SDS011;4594;50.994;7.126;2023-02-17T08:33:30;4.17;;;3.87;;
9117;SDS011;4594;50.994;7.126;2023-02-17T08:35:55;3.70;;;3.50;;
9117;SDS011;4594;50.994;7.126;2023-02-17T08:38:21;3.70;;;3.40;;
9117;SDS011;4594;50.994;7.126;2023-02-17T08:40:47;3.93;;;3.63;;
9117;SDS011;4594;50.994;7.126;2023-02-17T08:43:13;3.80;;;3.50;;
9117;SDS011;4594;50.994;7.126;2023-02-17T08:45:39;3.97;;;3.60;;
9117;SDS011;4594;50.994;7.126;2023-02-17T08:48:05;3.80;;;3.50;;
9117;SDS011;4594;50.994;7.126;2023-02-17T08:50:31;3.50;;;3.30;;
9117;SDS011;4594;50.994;7.126;2023-02-17T08:52:57;3.40;;;3.20;;
9117;SDS011;4594;50.994;7.126;2023-02-17T08:55:23;3.23;;;3.03;;
9117;SDS011;4594;50.994;7.126;2023-02-17T08:57:49;3.37;;;3.07;;
9117;SDS011;4594;50.994;7.126;2023-02-17T09:00:15;3.13;;;2.93;;
9117;SDS011;4594;50.994;7.126;2023-02-17T09:02:42;2.90;;;2.77;;
9117;SDS011;4594;50.994;7.126;2023-02-17T09:05:09;3.30;;;2.87;;
9117;SDS011;4594;50.994;7.126;2023-02-17T09:07:37;3.40;;;3.10;;
9117;SDS011;4594;50.994;7.126;2023-02-17T09:10:07;3.13;;;2.93;;
9117;SDS011;4594;50.994;7.126;2023-02-17T09:12:34;3.30;;;3.07;;
9117;SDS011;4594;50.994;7.126;2023-02-17T09:15:00;4.43;;;3.30;;
9117;SDS011;4594;50.994;7.126;2023-02-17T09:17:25;3.47;;;3.13;;
9117;SDS011;4594;50.994;7.126;2023-02-17T09:19:51;2.93;;;2.73;;
9117;SDS011;4594;50.994;7.126;2023-02-17T09:22:17;2.97;;;2.77;;
9117;SDS011;4594;50.994;7.126;2023-02-17T09:24:44;2.87;;;2.77;;
9117;SDS011;4594;50.994;7.126;2023-02-17T09:27:10;2.83;;;2.63;;
9117;SDS011;4594;50.994;7.126;2023-02-17T09:29:36;3.00;;;2.87;;
9117;SDS011;4594;50.994;7.126;2023-02-17T09:32:09;3.57;;;3.23;;
9117;SDS011;4594;50.994;7.126;2023-02-17T09:34:38;3.00;;;2.80;;
9117;SDS011;4594;50.994;7.126;2023-02-17T09:37:09;2.83;;;2.67;;
9117;SDS011;4594;50.994;7.126;2023-02-17T09:39:36;2.90;;;2.70;;
9117;SDS011;4594;50.994;7.126;2023-02-17T09:42:02;2.50;;;2.40;;
9117;SDS011;4594;50.994;7.126;2023-02-17T09:44:32;2.70;;;2.60;;
9117;SDS011;4594;50.994;7.126;2023-02-17T09:47:24;2.93;;;2.73;;
9117;SDS011;4594;50.994;7.126;2023-02-17T09:50:02;2.77;;;2.57;;
9117;SDS011;4594;50.994;7.126;2023-02-17T09:52:44;2.87;;;2.67;;
9117;SDS011;4594;50.994;7.126;2023-02-17T09:55:19;2.73;;;2.63;;
9117;SDS011;4594;50.994;7.126;2023-02-17T09:57:56;3.60;;;2.70;;
9117;SDS011;4594;50.994;7.126;2023-02-17T10:00:28;2.33;;;2.13;;
9117;SDS011;4594;50.994;7.126;2023-02-17T10:06:33;2.50;;;2.30;;
9117;SDS011;4594;50.994;7.126;2023-02-17T10:09:16;2.37;;;2.20;;
9117;SDS011;4594;50.994;7.126;2023-02-17T10:17:03;3.33;;;2.43;;
9117;SDS011;4594;50.994;7.126;2023-02-17T10:20:17;2.13;;;2.03;;
9117;SDS011;4594;50.994;7.126;2023-02-17T10:23:00;2.20;;;2.10;;
9117;SDS011;4594;50.994;7.126;2023-02-17T10:25:40;2.50;;;2.40;;
9117;SDS011;4594;50.994;7.126;2023-02-17T10:31:35;2.30;;;2.10;;
9117;SDS011;4594;50.994;7.126;2023-02-17T10:34:32;2.03;;;1.93;;
9117;SDS011;4594;50.994;7.126;2023-02-17T10:37:02;2.63;;;2.37;;
9117;SDS011;4594;50.994;7.126;2023-02-17T10:42:15;2.30;;;2.00;;
9117;SDS011;4594;50.994;7.126;2023-02-17T10:47:55;4.00;;;1.97;;
9117;SDS011;4594;50.994;7.126;2023-02-17T10:50:29;3.93;;;2.13;;
9117;SDS011;4594;50.994;7.126;2023-02-17T10:52:55;2.00;;;1.90;;
9117;SDS011;4594;50.994;7.126;2023-02-17T10:55:28;12.70;;;2.00;;
9117;SDS011;4594;50.994;7.126;2023-02-17T10:58:04;1.90;;;1.83;;
9117;SDS011;4594;50.994;7.126;2023-02-17T11:01:09;3.37;;;1.70;;
9117;SDS011;4594;50.994;7.126;2023-02-17T11:03:37;2.90;;;2.17;;
9117;SDS011;4594;50.994;7.126;2023-02-17T11:06:17;2.20;;;2.10;;
9117;SDS011;4594;50.994;7.126;2023-02-17T11:08:57;2.10;;;1.90;;
9117;SDS011;4594;50.994;7.126;2023-02-17T11:11:28;4.83;;;2.10;;
9117;SDS011;4594;50.994;7.126;2023-02-17T11:16:38;3.07;;;1.90;;
9117;SDS011;4594;50.994;7.126;2023-02-17T11:19:26;2.50;;;1.90;;
9117;SDS011;4594;50.994;7.126;2023-02-17T11:21:58;4.73;;;1.93;;
9117;SDS011;4594;50.994;7.126;2023-02-17T11:24:28;5.43;;;2.60;;
9117;SDS011;4594;50.994;7.126;2023-02-17T11:26:58;2.80;;;2.00;;
9117;SDS011;4594;50.994;7.126;2023-02-17T11:29:33;2.00;;;1.90;;
9117;SDS011;4594;50.994;7.126;2023-02-17T11:31:59;1.90;;;1.80;;
9117;SDS011;4594;50.994;7.126;2023-02-17T11:34:36;1.90;;;1.70;;
9117;SDS011;4594;50.994;7.126;2023-02-17T11:39:41;2.27;;;1.90;;
9117;SDS011;4594;50.994;7.126;2023-02-17T11:42:23;1.80;;;1.70;;
9117;SDS011;4594;50.994;7.126;2023-02-17T11:44:53;1.70;;;1.70;;
9117;SDS011;4594;50.994;7.126;2023-02-17T11:50:21;2.43;;;2.23;;
9117;SDS011;4594;50.994;7.126;2023-02-17T11:59:02;2.10;;;2.00;;
9117;SDS011;4594;50.994;7.126;2023-02-17T12:10:23;9.53;;;2.00;;
9117;SDS011;4594;50.994;7.126;2023-02-17T12:13:28;3.50;;;1.70;;
9117;SDS011;4594;50.994;7.126;2023-02-17T12:19:16;2.00;;;1.90;;
9117;SDS011;4594;50.994;7.126;2023-02-17T12:22:01;1.90;;;1.70;;
9117;SDS011;4594;50.994;7.126;2023-02-17T12:30:26;5.53;;;2.20;;
9117;SDS011;4594;50.994;7.126;2023-02-17T12:36:07;5.53;;;2.30;;
9117;SDS011;4594;50.994;7.126;2023-02-17T12:38:40;9.37;;;1.97;;
9117;SDS011;4594;50.994;7.126;2023-02-17T12:41:32;7.27;;;2.00;;
9117;SDS011;4594;50.994;7.126;2023-02-17T12:47:29;3.07;;;1.80;;
9117;SDS011;4594;50.994;7.126;2023-02-17T12:50:18;2.73;;;2.10;;
9117;SDS011;4594;50.994;7.126;2023-02-17T12:53:04;8.80;;;2.20;;
9117;SDS011;4594;50.994;7.126;2023-02-17T12:55:43;2.87;;;2.03;;
9117;SDS011;4594;50.994;7.126;2023-02-17T12:58:25;6.23;;;2.00;;
9117;SDS011;4594;50.994;7.126;2023-02-17T13:03:34;6.20;;;1.80;;
9117;SDS011;4594;50.994;7.126;2023-02-17T13:09:14;5.33;;;2.20;;
9117;SDS011;4594;50.994;7.126;2023-02-17T13:11:49;7.67;;;1.73;;
9117;SDS011;4594;50.994;7.126;2023-02-17T13:14:23;10.00;;;2.70;;
9117;SDS011;4594;50.994;7.126;2023-02-17T13:17:03;8.30;;;2.10;;
9117;SDS011;4594;50.994;7.126;2023-02-17T13:19:30;10.90;;;1.93;;
9117;SDS011;4594;50.994;7.126;2023-02-17T13:21:59;7.60;;;1.93;;
9117;SDS011;4594;50.994;7.126;2023-02-17T13:24:39;7.93;;;2.20;;
9117;SDS011;4594;50.994;7.126;2023-02-17T13:32:34;4.93;;;2.00;;
9117;SDS011;4594;50.994;7.126;2023-02-17T13:35:04;12.43;;;2.10;;
9117;SDS011;4594;50.994;7.126;2023-02-17T13:37:51;4.23;;;2.17;;
9117;SDS011;4594;50.994;7.126;2023-02-17T13:42:47;3.43;;;2.00;;
9117;SDS011;4594;50.994;7.126;2023-02-17T13:45:24;12.70;;;2.13;;
9117;SDS011;4594;50.994;7.126;2023-02-17T13:47:59;11.33;;;2.03;;
9117;SDS011;4594;50.994;7.126;2023-02-17T13:53:28;3.73;;;2.10;;
9117;SDS011;4594;50.994;7.126;2023-02-17T13:55:58;2.80;;;2.03;;
9117;SDS011;4594;50.994;7.126;2023-02-17T13:58:30;3.20;;;1.80;;
9117;SDS011;4594;50.994;7.126;2023-02-17T14:00:59;6.73;;;2.10;;
9117;SDS011;4594;50.994;7.126;2023-02-17T14:03:28;3.37;;;2.20;;
9117;SDS011;4594;50.994;7.126;2023-02-17T14:06:00;6.53;;;2.47;;
9117;SDS011;4594;50.994;7.126;2023-02-17T14:13:40;3.90;;;1.90;;
9117;SDS011;4594;50.994;7.126;2023-02-17T14:21:40;11.50;;;2.37;;
9117;SDS011;4594;50.994;7.126;2023-02-17T14:24:22;2.07;;;1.87;;
9117;SDS011;4594;50.994;7.126;2023-02-17T14:27:00;4.33;;;1.87;;
9117;SDS011;4594;50.994;7.126;2023-02-17T14:29:42;2.47;;;1.90;;
9117;SDS011;4594;50.994;7.126;2023-02-17T14:34:52;2.20;;;2.00;;
9117;SDS011;4594;50.994;7.126;2023-02-17T14:37:18;2.37;;;1.90;;
9117;SDS011;4594;50.994;7.126;2023-02-17T14:39:49;5.67;;;2.20;;
9117;SDS011;4594;50.994;7.126;2023-02-17T14:42:15;6.23;;;1.93;;
9117;SDS011;4594;50.994;7.126;2023-02-17T14:44:41;2.13;;;2.03;;
9117;SDS011;4594;50.994;7.126;2023-02-17T14:47:06;2.60;;;1.83;;
9117;SDS011;4594;50.994;7.126;2023-02-17T14:49:33;3.00;;;1.83;;
9117;SDS011;4594;50.994;7.126;2023-02-17T14:51:59;1.90;;;1.80;;
9117;SDS011;4594;50.994;7.126;2023-02-17T14:54:41;1.93;;;1.83;;
9117;SDS011;4594;50.994;7.126;2023-02-17T14:57:10;1.80;;;1.70;;
9117;SDS011;4594;50.994;7.126;2023-02-17T14:59:38;2.13;;;1.80;;
9117;SDS011;4594;50.994;7.126;2023-02-17T15:02:12;1.90;;;1.80;;
9117;SDS011;4594;50.994;7.126;2023-02-17T15:04:41;2.37;;;1.90;;
9117;SDS011;4594;50.994;7.126;2023-02-17T15:07:08;2.37;;;1.80;;
9117;SDS011;4594;50.994;7.126;2023-02-17T15:09:39;2.63;;;1.50;;
9117;SDS011;4594;50.994;7.126;2023-02-17T15:12:17;2.33;;;1.70;;
9117;SDS011;4594;50.994;7.126;2023-02-17T15:14:45;1.90;;;1.80;;
9117;SDS011;4594;50.994;7.126;2023-02-17T15:17:12;2.00;;;1.90;;
9117;SDS011;4594;50.994;7.126;2023-02-17T15:19:39;2.43;;;2.23;;
9117;SDS011;4594;50.994;7.126;2023-02-17T15:22:09;2.10;;;2.00;;
9117;SDS011;4594;50.994;7.126;2023-02-17T15:24:37;2.17;;;2.03;;
9117;SDS011;4594;50.994;7.126;2023-02-17T15:27:03;2.27;;;2.07;;
9117;SDS011;4594;50.994;7.126;2023-02-17T15:29:30;4.40;;;1.80;;
9117;SDS011;4594;50.994;7.126;2023-02-17T15:31:58;4.30;;;2.57;;
9117;SDS011;4594;50.994;7.126;2023-02-17T15:34:31;2.40;;;2.20;;
9117;SDS011;4594;50.994;7.126;2023-02-17T15:36:59;2.30;;;2.13;;
9117;SDS011;4594;50.994;7.126;2023-02-17T15:39:26;2.27;;;2.17;;
9117;SDS011;4594;50.994;7.126;2023-02-17T15:41:52;4.20;;;2.17;;
9117;SDS011;4594;50.994;7.126;2023-02-17T15:44:24;2.10;;;2.00;;
9117;SDS011;4594;50.994;7.126;2023-02-17T15:47:00;5.07;;;1.77;;
9117;SDS011;4594;50.994;7.126;2023-02-17T15:49:26;1.90;;;1.80;;
9117;SDS011;4594;50.994;7.126;2023-02-17T15:51:51;1.50;;;1.50;;
9117;SDS011;4594;50.994;7.126;2023-02-17T15:54:17;3.60;;;1.80;;
9117;SDS011;4594;50.994;7.126;2023-02-17T15:56:47;1.70;;;1.60;;
9117;SDS011;4594;50.994;7.126;2023-02-17T15:59:20;5.60;;;1.97;;
9117;SDS011;4594;50.994;7.126;2023-02-17T16:01:49;2.53;;;1.63;;
9117;SDS011;4594;50.994;7.126;2023-02-17T16:04:15;1.97;;;1.80;;
9117;SDS011;4594;50.994;7.126;2023-02-17T16:06:41;1.90;;;1.80;;
9117;SDS011;4594;50.994;7.126;2023-02-17T16:09:07;1.80;;;1.70;;
9117;SDS011;4594;50.994;7.126;2023-02-17T16:11:34;1.90;;;1.80;;
9117;SDS011;4594;50.994;7.126;2023-02-17T16:14:13;3.20;;;1.73;;
9117;SDS011;4594;50.994;7.126;2023-02-17T16:16:49;1.77;;;1.70;;
9117;SDS011;4594;50.994;7.126;2023-02-17T16:19:15;3.07;;;1.73;;
9117;SDS011;4594;50.994;7.126;2023-02-17T16:21:41;1.70;;;1.70;;
9117;SDS011;4594;50.994;7.126;2023-02-17T16:24:06;2.33;;;2.20;;
9117;SDS011;4594;50.994;7.126;2023-02-17T16:26:33;1.83;;;1.73;;
9117;SDS011;4594;50.994;7.126;2023-02-17T16:29:02;2.20;;;2.10;;
9117;SDS011;4594;50.994;7.126;2023-02-17T16:31:42;1.90;;;1.80;;
9117;SDS011;4594;50.994;7.126;2023-02-17T16:34:15;2.10;;;1.90;;
9117;SDS011;4594;50.994;7.126;2023-02-17T16:36:45;2.40;;;2.07;;
9117;SDS011;4594;50.994;7.126;2023-02-17T16:39:13;2.30;;;2.00;;
9117;SDS011;4594;50.994;7.126;2023-02-17T16:41:44;2.50;;;2.30;;
9117;SDS011;4594;50.994;7.126;2023-02-17T16:44:14;2.20;;;2.10;;
9117;SDS011;4594;50.994;7.126;2023-02-17T16:46:46;2.20;;;2.00;;
9117;SDS011;4594;50.994;7.126;2023-02-17T16:49:27;2.13;;;1.90;;
9117;SDS011;4594;50.994;7.126;2023-02-17T16:52:01;2.43;;;2.17;;
9117;SDS011;4594;50.994;7.126;2023-02-17T16:54:31;2.03;;;1.97;;
9117;SDS011;4594;50.994;7.126;2023-02-17T16:56:57;3.17;;;2.87;;
9117;SDS011;4594;50.994;7.126;2023-02-17T16:59:24;2.40;;;2.07;;
9117;SDS011;4594;50.994;7.126;2023-02-17T17:01:51;2.10;;;2.00;;
9117;SDS011;4594;50.994;7.126;2023-02-17T17:04:17;3.07;;;2.47;;
9117;SDS011;4594;50.994;7.126;2023-02-17T17:06:45;3.33;;;3.13;;
9117;SDS011;4594;50.994;7.126;2023-02-17T17:09:15;2.80;;;2.60;;
9117;SDS011;4594;50.994;7.126;2023-02-17T17:11:47;2.37;;;2.23;;
9117;SDS011;4594;50.994;7.126;2023-02-17T17:14:13;2.57;;;2.47;;
9117;SDS011;4594;50.994;7.126;2023-02-17T17:16:40;2.50;;;2.40;;
9117;SDS011;4594;50.994;7.126;2023-02-17T17:19:14;2.40;;;2.40;;
9117;SDS011;4594;50.994;7.126;2023-02-17T17:21:40;2.60;;;2.40;;
9117;SDS011;4594;50.994;7.126;2023-02-17T17:24:05;2.33;;;2.23;;
9117;SDS011;4594;50.994;7.126;2023-02-17T17:26:32;2.30;;;2.20;;
9117;SDS011;4594;50.994;7.126;2023-02-17T17:29:04;2.30;;;2.20;;
9117;SDS011;4594;50.994;7.126;2023-02-17T17:31:32;2.87;;;2.67;;
9117;SDS011;4594;50.994;7.126;2023-02-17T17:34:01;2.50;;;2.40;;
9117;SDS011;4594;50.994;7.126;2023-02-17T17:39:10;2.00;;;2.00;;
9117;SDS011;4594;50.994;7.126;2023-02-17T17:41:44;2.20;;;2.10;;
9117;SDS011;4594;50.994;7.126;2023-02-17T17:44:10;2.80;;;2.60;;
9117;SDS011;4594;50.994;7.126;2023-02-17T17:46:36;2.03;;;2.03;;
9117;SDS011;4594;50.994;7.126;2023-02-17T17:49:03;2.33;;;2.23;;
9117;SDS011;4594;50.994;7.126;2023-02-17T17:51:31;2.67;;;2.47;;